createdAt,value
2023-07-25T00:00:05.224Z,0.90
2023-07-25T00:02:35.222Z,0.90
2023-07-25T00:05:06.220Z,1.00
2023-07-25T00:07:34.251Z,0.95
2023-07-25T00:10:03.081Z,1.20
2023-07-25T00:12:30.910Z,0.63
2023-07-25T00:14:59.794Z,1.10
2023-07-25T00:17:27.816Z,1.27
2023-07-25T00:19:57.153Z,1.10
2023-07-25T00:22:27.124Z,1.00
2023-07-25T00:24:55.301Z,1.30
2023-07-25T00:27:23.367Z,1.00
2023-07-25T00:29:53.998Z,1.10
2023-07-25T00:32:22.219Z,1.00
2023-07-25T00:34:52.412Z,0.87
2023-07-25T00:37:21.693Z,0.97
2023-07-25T00:39:54.756Z,1.73
2023-07-25T00:42:22.635Z,1.63
2023-07-25T00:44:50.422Z,1.33
2023-07-25T00:47:19.480Z,1.03
2023-07-25T00:49:48.202Z,1.03
2023-07-25T00:52:16.951Z,1.20
2023-07-25T00:54:50.248Z,1.00
2023-07-25T00:57:19.833Z,0.97
2023-07-25T00:59:50.164Z,1.20
2023-07-25T01:02:18.852Z,1.48
2023-07-25T01:04:47.042Z,1.60
2023-07-25T01:07:15.382Z,1.00
2023-07-25T01:09:44.367Z,1.20
2023-07-25T01:12:14.963Z,1.20
2023-07-25T01:14:43.297Z,0.90
2023-07-25T01:17:14.120Z,1.00
2023-07-25T01:19:44.392Z,1.55
2023-07-25T01:22:13.809Z,1.10
2023-07-25T01:24:46.587Z,1.30
2023-07-25T01:27:14.620Z,1.10
2023-07-25T01:29:42.657Z,1.03
2023-07-25T01:32:12.068Z,0.77
2023-07-25T01:34:41.894Z,1.47
2023-07-25T01:37:11.385Z,1.13
2023-07-25T01:39:39.971Z,0.97
2023-07-25T01:42:10.889Z,1.00
2023-07-25T01:44:39.032Z,0.97
2023-07-25T01:47:08.181Z,1.10
2023-07-25T01:49:38.343Z,1.10
2023-07-25T01:52:07.943Z,1.13
2023-07-25T01:54:35.929Z,1.10
2023-07-25T01:57:04.470Z,1.00
2023-07-25T01:59:33.743Z,1.00
2023-07-25T02:02:03.813Z,1.00
2023-07-25T02:04:34.387Z,0.83
2023-07-25T02:07:02.221Z,1.63
2023-07-25T02:09:30.654Z,1.27
2023-07-25T02:11:59.550Z,0.70
2023-07-25T02:14:28.121Z,1.20
2023-07-25T02:16:57.618Z,1.00
2023-07-25T02:19:26.186Z,1.00
2023-07-25T02:21:54.442Z,1.00
2023-07-25T02:24:22.598Z,1.40
2023-07-25T02:26:50.540Z,1.13
2023-07-25T02:29:19.132Z,1.13
2023-07-25T02:31:47.304Z,0.80
2023-07-25T02:34:19.041Z,1.47
2023-07-25T02:36:48.502Z,1.63
2023-07-25T02:39:16.635Z,1.47
2023-07-25T02:41:44.436Z,1.27
2023-07-25T02:44:14.589Z,1.73
2023-07-25T02:46:43.079Z,1.00
2023-07-25T02:49:12.644Z,0.80
2023-07-25T02:51:42.184Z,1.10
2023-07-25T02:54:10.023Z,1.13
2023-07-25T02:56:38.008Z,1.07
2023-07-25T02:59:06.193Z,1.13
2023-07-25T03:01:34.302Z,1.43
2023-07-25T03:04:03.148Z,1.20
2023-07-25T03:06:31.326Z,1.40
2023-07-25T03:09:00.707Z,1.53
2023-07-25T03:11:28.944Z,1.47
2023-07-25T03:13:57.523Z,1.20
2023-07-25T03:16:25.719Z,1.70
2023-07-25T03:18:53.777Z,1.07
2023-07-25T03:21:21.928Z,1.50
2023-07-25T03:23:50.056Z,1.00
2023-07-25T03:26:19.244Z,1.20
2023-07-25T03:28:47.791Z,1.47
2023-07-25T03:31:15.767Z,1.50
2023-07-25T03:33:43.841Z,1.43
2023-07-25T03:36:11.755Z,1.33
2023-07-25T03:38:39.733Z,2.33
2023-07-25T03:41:07.734Z,1.20
2023-07-25T03:43:37.135Z,1.10
2023-07-25T03:46:05.103Z,1.30
2023-07-25T03:48:35.174Z,1.10
2023-07-25T03:51:03.135Z,1.70
2023-07-25T03:53:30.974Z,1.43
2023-07-25T03:55:58.805Z,1.30
2023-07-25T03:58:26.784Z,1.27
2023-07-25T04:00:55.209Z,1.10
2023-07-25T04:03:25.403Z,1.30
2023-07-25T04:05:55.273Z,1.40
2023-07-25T04:08:23.141Z,1.13
2023-07-25T04:10:50.957Z,1.23
2023-07-25T04:13:18.792Z,1.67
2023-07-25T04:15:46.631Z,1.30
2023-07-25T04:18:15.760Z,1.63
2023-07-25T04:20:43.627Z,1.50
2023-07-25T04:23:12.518Z,1.13
2023-07-25T04:25:40.297Z,1.43
2023-07-25T04:28:08.592Z,1.30
2023-07-25T04:30:36.598Z,1.20
2023-07-25T04:33:04.572Z,1.47
2023-07-25T04:35:33.740Z,1.37
2023-07-25T04:38:03.548Z,1.20
2023-07-25T04:40:31.464Z,1.10
2023-07-25T04:42:59.373Z,1.23
2023-07-25T04:45:27.264Z,1.10
2023-07-25T04:47:55.546Z,1.53
2023-07-25T04:50:23.900Z,1.23
2023-07-25T04:52:53.368Z,1.53
2023-07-25T04:55:21.304Z,1.90
2023-07-25T04:57:50.914Z,1.20
2023-07-25T05:00:19.103Z,1.07
2023-07-25T05:02:47.002Z,1.70
2023-07-25T05:05:14.992Z,1.47
2023-07-25T05:07:43.094Z,1.63
2023-07-25T05:10:13.222Z,1.20
2023-07-25T05:12:41.056Z,1.13
2023-07-25T05:15:09.799Z,1.10
2023-07-25T05:17:37.728Z,1.10
2023-07-25T05:20:06.684Z,1.40
2023-07-25T05:22:34.650Z,0.93
2023-07-25T05:25:02.617Z,1.10
2023-07-25T05:27:31.909Z,1.00
2023-07-25T05:29:59.835Z,1.00
2023-07-25T05:32:27.798Z,1.40
2023-07-25T05:34:55.728Z,1.37
2023-07-25T05:37:24.724Z,1.50
2023-07-25T05:39:52.682Z,1.17
2023-07-25T05:42:20.716Z,1.93
2023-07-25T05:44:49.887Z,2.60
2023-07-25T05:47:17.758Z,1.60
2023-07-25T05:49:45.680Z,1.40
2023-07-25T05:52:13.854Z,1.50
2023-07-25T05:54:41.684Z,1.10
2023-07-25T05:57:09.583Z,1.10
2023-07-25T05:59:37.365Z,1.40
2023-07-25T06:02:07.450Z,1.20
2023-07-25T06:04:35.457Z,1.80
2023-07-25T06:07:03.454Z,1.50
2023-07-25T06:09:31.288Z,1.43
2023-07-25T06:12:00.706Z,1.47
2023-07-25T06:14:28.545Z,1.25
2023-07-25T06:16:56.667Z,1.10
2023-07-25T06:19:26.051Z,1.02
2023-07-25T06:21:53.913Z,1.25
2023-07-25T06:24:21.968Z,1.30
2023-07-25T06:26:49.883Z,1.10
2023-07-25T06:29:17.906Z,1.15
2023-07-25T06:31:46.022Z,1.20
2023-07-25T06:34:13.854Z,1.58
2023-07-25T06:36:43.285Z,1.35
2023-07-25T06:39:13.331Z,1.02
2023-07-25T06:41:44.251Z,1.00
2023-07-25T06:44:13.659Z,1.17
2023-07-25T06:46:43.383Z,1.20
2023-07-25T06:49:11.479Z,1.27
2023-07-25T06:51:39.492Z,1.20
2023-07-25T06:54:08.725Z,1.20
2023-07-25T06:56:36.536Z,1.25
2023-07-25T06:59:04.441Z,1.50
2023-07-25T07:01:32.566Z,1.13
2023-07-25T07:04:00.858Z,1.55
2023-07-25T07:06:28.917Z,0.95
2023-07-25T07:08:56.977Z,1.17
2023-07-25T07:11:26.152Z,1.13
2023-07-25T07:13:54.143Z,1.25
2023-07-25T07:16:22.008Z,1.67
2023-07-25T07:18:52.093Z,1.27
2023-07-25T07:21:20.032Z,1.20
2023-07-25T07:23:49.268Z,2.03
2023-07-25T07:26:18.369Z,1.25
2023-07-25T07:28:47.668Z,1.10
2023-07-25T07:31:17.214Z,0.95
2023-07-25T07:33:45.145Z,1.00
2023-07-25T07:36:12.981Z,1.20
2023-07-25T07:38:41.052Z,1.35
2023-07-25T07:41:08.911Z,1.10
2023-07-25T07:43:39.474Z,1.17
2023-07-25T07:46:08.684Z,1.23
2023-07-25T07:48:36.945Z,1.27
2023-07-25T07:51:05.886Z,1.25
2023-07-25T07:53:33.870Z,1.10
2023-07-25T07:56:05.443Z,1.00
2023-07-25T07:58:34.895Z,0.70
2023-07-25T08:01:03.077Z,0.88
2023-07-25T08:03:32.284Z,1.17
2023-07-25T08:06:00.233Z,1.15
2023-07-25T08:08:28.113Z,1.00
2023-07-25T08:10:55.946Z,1.75
2023-07-25T08:13:23.933Z,1.10
2023-07-25T08:15:51.853Z,0.70
2023-07-25T08:18:19.808Z,1.00
2023-07-25T08:20:49.421Z,1.10
2023-07-25T08:23:17.248Z,1.35
2023-07-25T08:25:46.384Z,1.20
2023-07-25T08:28:14.335Z,0.90
2023-07-25T08:30:42.487Z,1.20
2023-07-25T08:33:10.391Z,0.70
2023-07-25T08:35:39.239Z,1.40
2023-07-25T08:38:09.940Z,1.00
2023-07-25T08:40:37.838Z,0.93
2023-07-25T08:43:13.189Z,1.00
2023-07-25T08:45:44.025Z,1.02
2023-07-25T08:48:13.868Z,1.05
2023-07-25T08:50:44.558Z,0.77
2023-07-25T08:53:17.623Z,0.93
2023-07-25T08:55:47.178Z,0.90
2023-07-25T08:58:16.967Z,0.73
2023-07-25T09:00:45.842Z,0.70
2023-07-25T09:03:16.536Z,0.65
2023-07-25T09:05:45.193Z,0.90
2023-07-25T09:08:14.645Z,0.90
2023-07-25T09:10:45.024Z,0.80
2023-07-25T09:13:12.865Z,0.77
2023-07-25T09:15:41.552Z,0.88
2023-07-25T09:18:09.454Z,0.65
2023-07-25T09:20:38.813Z,0.70
2023-07-25T09:23:06.642Z,0.65
2023-07-25T09:25:35.881Z,0.68
2023-07-25T09:28:03.749Z,0.93
2023-07-25T09:30:31.696Z,0.82
2023-07-25T09:32:59.623Z,1.00
2023-07-25T09:35:28.001Z,0.73
2023-07-25T09:37:57.359Z,0.63
2023-07-25T09:40:25.545Z,0.60
2023-07-25T09:42:55.146Z,0.70
2023-07-25T09:45:23.156Z,0.60
2023-07-25T09:47:53.844Z,1.00
2023-07-25T09:50:27.392Z,0.90
2023-07-25T09:52:55.267Z,0.95
2023-07-25T09:55:23.160Z,1.02
2023-07-25T09:57:51.510Z,0.80
2023-07-25T10:00:21.006Z,0.77
2023-07-25T10:02:50.769Z,0.88
2023-07-25T10:05:19.037Z,0.45
2023-07-25T10:07:50.440Z,0.60
2023-07-25T10:10:19.719Z,0.85
2023-07-25T10:12:50.050Z,1.38
2023-07-25T10:15:18.957Z,0.82
2023-07-25T10:17:48.815Z,0.60
2023-07-25T10:20:23.161Z,0.65
2023-07-25T10:22:51.643Z,0.60
2023-07-25T10:25:21.215Z,0.85
2023-07-25T10:27:49.302Z,0.88
2023-07-25T10:30:24.707Z,0.80
2023-07-25T10:32:57.965Z,1.02
2023-07-25T10:35:42.318Z,0.57
2023-07-25T10:38:11.535Z,0.90
2023-07-25T10:40:56.966Z,0.70
2023-07-25T10:43:29.377Z,0.90
2023-07-25T10:45:59.117Z,0.50
2023-07-25T10:48:46.068Z,0.22
2023-07-25T10:51:16.471Z,0.57
2023-07-25T10:54:00.521Z,0.65
2023-07-25T10:56:28.407Z,0.60
2023-07-25T10:59:10.252Z,0.63
2023-07-25T11:01:45.659Z,0.95
2023-07-25T11:04:30.768Z,0.60
2023-07-25T11:07:02.494Z,0.70
2023-07-25T11:09:30.609Z,0.98
2023-07-25T11:11:58.993Z,1.00
2023-07-25T11:14:27.157Z,0.93
2023-07-25T11:16:56.315Z,1.08
2023-07-25T11:19:32.308Z,0.80
2023-07-25T11:22:01.162Z,0.80
2023-07-25T11:24:29.122Z,0.70
2023-07-25T11:27:04.222Z,0.77
2023-07-25T11:29:32.095Z,0.50
2023-07-25T11:32:03.842Z,0.90
2023-07-25T11:34:33.983Z,0.70
2023-07-25T11:37:02.021Z,1.00
2023-07-25T11:39:29.968Z,0.80
2023-07-25T11:41:59.020Z,0.70
2023-07-25T11:44:26.959Z,0.75
2023-07-25T11:46:57.605Z,0.50
2023-07-25T11:49:40.914Z,0.50
2023-07-25T11:52:15.686Z,0.90
2023-07-25T11:54:43.835Z,0.63
2023-07-25T11:57:14.246Z,0.65
2023-07-25T11:59:42.351Z,0.85
2023-07-25T12:02:13.052Z,0.88
2023-07-25T12:04:44.940Z,0.80
2023-07-25T12:07:13.178Z,0.80
2023-07-25T12:09:51.027Z,1.13
2023-07-25T12:12:19.184Z,0.60
2023-07-25T12:14:56.169Z,0.98
2023-07-25T12:17:24.426Z,1.23
2023-07-25T12:19:55.751Z,1.08
2023-07-25T12:22:23.536Z,0.98
2023-07-25T12:24:53.038Z,1.02
2023-07-25T12:27:21.443Z,1.10
2023-07-25T12:29:49.468Z,0.90
2023-07-25T12:32:17.531Z,0.80
2023-07-25T12:34:46.252Z,1.00
2023-07-25T12:37:14.089Z,0.93
2023-07-25T12:39:42.059Z,0.75
2023-07-25T12:42:11.290Z,1.10
2023-07-25T12:44:39.313Z,0.75
2023-07-25T12:47:07.672Z,0.80
2023-07-25T12:49:35.452Z,0.85
2023-07-25T12:52:03.358Z,1.02
2023-07-25T12:54:31.294Z,1.20
2023-07-25T12:56:59.285Z,0.77
2023-07-25T12:59:28.439Z,0.88
2023-07-25T13:01:56.541Z,0.70
2023-07-25T13:04:25.344Z,0.80
2023-07-25T13:06:53.446Z,0.95
2023-07-25T13:09:21.492Z,0.65
2023-07-25T13:11:49.244Z,1.00
2023-07-25T13:14:17.104Z,0.68
2023-07-25T13:16:46.450Z,0.65
2023-07-25T13:19:14.877Z,0.65
2023-07-25T13:21:42.775Z,0.88
2023-07-25T13:24:10.752Z,0.70
2023-07-25T13:26:38.893Z,1.02
2023-07-25T13:29:07.039Z,0.98
2023-07-25T13:31:35.856Z,0.43
2023-07-25T13:34:05.368Z,0.57
2023-07-25T13:36:33.196Z,0.60
2023-07-25T13:39:01.012Z,0.60
2023-07-25T13:41:29.150Z,0.73
2023-07-25T13:43:57.193Z,0.75
2023-07-25T13:46:25.127Z,1.00
2023-07-25T13:48:53.070Z,0.68
2023-07-25T13:51:22.367Z,0.70
2023-07-25T13:53:50.264Z,0.73
2023-07-25T13:56:18.257Z,0.60
2023-07-25T13:58:47.298Z,0.93
2023-07-25T14:01:15.440Z,0.70
2023-07-25T14:03:43.304Z,0.88
2023-07-25T14:06:11.117Z,0.63
2023-07-25T14:08:40.336Z,0.70
2023-07-25T14:11:08.342Z,0.57
2023-07-25T14:13:36.304Z,0.77
2023-07-25T14:16:04.326Z,0.60
2023-07-25T14:18:32.175Z,0.55
2023-07-25T14:21:01.074Z,0.50
2023-07-25T14:23:28.939Z,0.32
2023-07-25T14:25:58.112Z,0.60
2023-07-25T14:28:26.406Z,0.50
2023-07-25T14:30:54.366Z,0.60
2023-07-25T14:33:22.443Z,0.50
2023-07-25T14:35:50.748Z,0.47
2023-07-25T14:38:19.337Z,0.43
2023-07-25T14:40:47.443Z,0.63
2023-07-25T14:43:16.717Z,0.47
2023-07-25T14:45:45.259Z,0.32
2023-07-25T14:48:13.203Z,0.73
2023-07-25T14:50:41.424Z,0.95
2023-07-25T14:53:09.503Z,0.60
2023-07-25T14:55:37.410Z,0.70
2023-07-25T14:58:05.325Z,0.60
2023-07-25T15:00:34.949Z,0.45
2023-07-25T15:03:03.029Z,0.38
2023-07-25T15:05:31.051Z,0.25
2023-07-25T15:07:58.901Z,0.45
2023-07-25T15:10:27.008Z,0.40
2023-07-25T15:12:56.128Z,0.50
2023-07-25T15:15:24.069Z,0.70
2023-07-25T15:17:53.707Z,0.70
2023-07-25T15:20:23.949Z,0.65
2023-07-25T15:22:51.789Z,0.52
2023-07-25T15:25:19.627Z,0.35
2023-07-25T15:27:47.423Z,1.40
2023-07-25T15:30:15.336Z,0.60
2023-07-25T15:32:43.285Z,0.52
2023-07-25T15:35:12.758Z,0.40
2023-07-25T15:37:40.766Z,0.88
2023-07-25T15:40:11.095Z,0.50
2023-07-25T15:42:39.532Z,0.40
2023-07-25T15:45:09.281Z,0.57
2023-07-25T15:47:37.255Z,0.82
2023-07-25T15:50:05.711Z,0.40
2023-07-25T15:52:35.072Z,0.55
2023-07-25T15:55:04.703Z,0.73
2023-07-25T15:57:33.215Z,0.63
2023-07-25T16:00:01.159Z,0.45
2023-07-25T16:02:29.027Z,1.33
2023-07-25T16:04:57.070Z,0.60
2023-07-25T16:07:24.947Z,0.55
2023-07-25T16:09:54.082Z,0.32
2023-07-25T16:12:22.097Z,0.43
2023-07-25T16:14:49.868Z,0.63
2023-07-25T16:17:17.774Z,0.68
2023-07-25T16:19:45.804Z,0.32
2023-07-25T16:22:13.569Z,0.30
2023-07-25T16:24:41.371Z,0.50
2023-07-25T16:27:10.552Z,0.30
2023-07-25T16:29:39.060Z,0.60
2023-07-25T16:32:07.416Z,0.47
2023-07-25T16:34:35.631Z,0.32
2023-07-25T16:37:03.554Z,0.50
2023-07-25T16:39:31.467Z,0.50
2023-07-25T16:41:59.280Z,0.55
2023-07-25T16:44:28.685Z,0.30
2023-07-25T16:46:56.716Z,0.38
2023-07-25T16:49:24.596Z,0.75
2023-07-25T16:51:52.399Z,0.20
2023-07-25T16:54:20.611Z,0.63
2023-07-25T16:56:49.613Z,0.50
2023-07-25T16:59:17.409Z,0.57
2023-07-25T17:01:46.639Z,0.50
2023-07-25T17:04:14.728Z,0.50
2023-07-25T17:06:42.637Z,0.47
2023-07-25T17:09:10.593Z,0.35
2023-07-25T17:11:38.498Z,0.65
2023-07-25T17:14:07.103Z,0.40
2023-07-25T17:16:34.867Z,0.40
2023-07-25T17:19:04.013Z,0.55
2023-07-25T17:24:06.953Z,0.40
2023-07-25T17:26:34.839Z,0.50
2023-07-25T17:29:02.937Z,0.47
2023-07-25T17:31:31.359Z,0.50
2023-07-25T17:34:00.306Z,0.60
2023-07-25T17:36:30.482Z,0.50
2023-07-25T17:39:02.720Z,0.40
2023-07-25T17:41:31.369Z,0.70
2023-07-25T17:44:04.438Z,0.73
2023-07-25T17:46:32.516Z,0.60
2023-07-25T17:49:04.241Z,0.70
2023-07-25T17:51:34.295Z,1.05
2023-07-25T17:54:02.983Z,0.80
2023-07-25T17:56:31.251Z,0.60
2023-07-25T17:58:59.584Z,0.98
2023-07-25T18:01:28.204Z,0.93
2023-07-25T18:03:56.126Z,0.50
2023-07-25T18:06:24.354Z,0.80
2023-07-25T18:08:53.725Z,0.85
2023-07-25T18:11:21.710Z,0.95
2023-07-25T18:13:51.476Z,0.88
2023-07-25T18:16:19.328Z,0.82
2023-07-25T18:18:48.779Z,1.00
2023-07-25T18:21:19.229Z,0.57
2023-07-25T18:23:48.452Z,0.90
2023-07-25T18:26:17.914Z,1.25
2023-07-25T18:28:50.072Z,1.45
2023-07-25T18:31:18.488Z,0.70
2023-07-25T18:33:46.320Z,0.60
2023-07-25T18:36:14.174Z,0.63
2023-07-25T18:38:42.351Z,0.70
2023-07-25T18:41:12.814Z,0.70
2023-07-25T18:43:42.477Z,1.05
2023-07-25T18:46:11.428Z,1.20
2023-07-25T18:48:39.329Z,0.80
2023-07-25T18:51:07.940Z,0.68
2023-07-25T18:53:35.772Z,0.85
2023-07-25T18:56:03.892Z,1.27
2023-07-25T18:58:32.033Z,2.58
2023-07-25T19:01:01.627Z,2.60
2023-07-25T19:03:30.257Z,2.00
2023-07-25T19:05:58.384Z,1.45
2023-07-25T19:08:26.371Z,3.00
2023-07-25T19:10:55.874Z,1.27
2023-07-25T19:13:24.107Z,1.07
2023-07-25T19:15:53.188Z,1.08
2023-07-25T19:18:22.793Z,1.50
2023-07-25T19:20:50.874Z,1.57
2023-07-25T19:23:25.783Z,2.92
2023-07-25T19:25:58.288Z,3.10
2023-07-25T19:28:26.197Z,2.13
2023-07-25T19:30:54.372Z,1.00
2023-07-25T19:33:24.984Z,1.58
2023-07-25T19:35:55.217Z,1.30
2023-07-25T19:38:23.245Z,0.80
2023-07-25T19:40:51.193Z,0.70
2023-07-25T19:43:19.676Z,1.57
2023-07-25T19:45:47.931Z,0.57
2023-07-25T19:48:17.862Z,0.47
2023-07-25T19:50:47.971Z,0.63
2023-07-25T19:53:16.819Z,1.03
2023-07-25T19:55:44.824Z,0.90
2023-07-25T19:58:12.975Z,0.70
2023-07-25T20:00:42.988Z,0.90
2023-07-25T20:03:11.155Z,0.70
2023-07-25T20:05:39.217Z,0.93
2023-07-25T20:08:08.367Z,1.08
2023-07-25T20:10:36.621Z,0.67
2023-07-25T20:13:04.589Z,0.73
2023-07-25T20:15:32.769Z,0.87
2023-07-25T20:18:00.948Z,1.13
2023-07-25T20:20:30.781Z,0.83
2023-07-25T20:22:58.910Z,0.95
2023-07-25T20:25:28.315Z,0.83
2023-07-25T20:27:56.435Z,0.83
2023-07-25T20:30:24.312Z,0.77
2023-07-25T20:32:52.415Z,0.75
2023-07-25T20:35:20.292Z,0.90
2023-07-25T20:37:48.362Z,0.60
2023-07-25T20:40:16.712Z,1.00
2023-07-25T20:42:46.355Z,1.00
2023-07-25T20:45:17.024Z,0.90
2023-07-25T20:47:46.543Z,1.10
2023-07-25T20:50:14.706Z,0.70
2023-07-25T20:52:43.301Z,0.80
2023-07-25T20:55:11.188Z,0.97
2023-07-25T20:57:39.510Z,0.73
2023-07-25T21:00:13.853Z,1.00
2023-07-25T21:02:41.975Z,0.97
2023-07-25T21:05:10.548Z,0.60
2023-07-25T21:07:39.995Z,0.90
2023-07-25T21:10:09.770Z,0.50
2023-07-25T21:12:39.395Z,0.60
2023-07-25T21:15:11.238Z,0.97
2023-07-25T21:17:39.366Z,0.82
2023-07-25T21:20:08.639Z,0.90
2023-07-25T21:22:37.047Z,0.87
2023-07-25T21:25:06.426Z,0.93
2023-07-25T21:27:34.597Z,0.90
2023-07-25T21:30:02.839Z,0.73
2023-07-25T21:32:32.440Z,0.80
2023-07-25T21:35:01.605Z,0.73
2023-07-25T21:37:29.429Z,0.60
2023-07-25T21:39:58.540Z,0.53
2023-07-25T21:42:26.509Z,0.70
2023-07-25T21:44:54.472Z,0.80
2023-07-25T21:47:22.483Z,0.90
2023-07-25T21:49:51.813Z,1.00
2023-07-25T21:52:19.640Z,0.67
2023-07-25T21:54:47.560Z,1.00
2023-07-25T21:57:15.419Z,0.98
2023-07-25T21:59:43.337Z,0.80
2023-07-25T22:02:19.874Z,0.60
2023-07-25T22:04:48.058Z,0.80
2023-07-25T22:07:17.516Z,1.17
2023-07-25T22:09:45.780Z,1.20
2023-07-25T22:12:13.882Z,0.83
2023-07-25T22:14:44.156Z,0.93
2023-07-25T22:17:12.491Z,1.20
2023-07-25T22:19:40.367Z,0.73
2023-07-25T22:22:08.828Z,0.77
2023-07-25T22:24:39.599Z,1.40
2023-07-25T22:27:08.106Z,1.07
2023-07-25T22:29:37.203Z,0.60
2023-07-25T22:32:08.006Z,0.67
2023-07-25T22:34:38.368Z,1.63
2023-07-25T22:37:09.603Z,0.73
2023-07-25T22:39:38.853Z,0.80
2023-07-25T22:42:07.284Z,0.80
2023-07-25T22:44:35.161Z,0.77
2023-07-25T22:47:04.390Z,0.67
2023-07-25T22:49:33.876Z,1.20
2023-07-25T22:52:02.088Z,0.50
2023-07-25T22:54:30.421Z,0.93
2023-07-25T22:57:02.802Z,1.03
2023-07-25T22:59:31.401Z,0.80
2023-07-25T23:01:59.372Z,0.90
2023-07-25T23:04:27.561Z,0.77
2023-07-25T23:06:55.611Z,1.10
2023-07-25T23:09:24.144Z,0.70
2023-07-25T23:11:52.092Z,0.77
2023-07-25T23:14:21.382Z,0.90
2023-07-25T23:16:49.359Z,0.93
2023-07-25T23:19:17.157Z,0.80
2023-07-25T23:21:45.109Z,0.80
2023-07-25T23:24:13.014Z,0.80
2023-07-25T23:26:43.051Z,0.77
2023-07-25T23:29:11.538Z,1.00
2023-07-25T23:31:40.810Z,0.97
2023-07-25T23:34:08.964Z,0.87
2023-07-25T23:36:37.797Z,1.03
2023-07-25T23:39:05.680Z,1.07
2023-07-25T23:41:36.359Z,1.07
2023-07-25T23:44:04.708Z,1.00
2023-07-25T23:46:33.220Z,0.77
2023-07-25T23:49:03.305Z,0.60
2023-07-25T23:51:31.204Z,0.70
2023-07-25T23:54:01.123Z,0.77
2023-07-25T23:56:29.346Z,0.70
2023-07-25T23:58:57.509Z,0.80
